Aviation Digital Data Service (ADDS)

Output produced by METARs form (1845 UTC 25 September 2020)
found at http://www.aviationweather.gov/metar/data/
 
METAR text: KGYI 251750Z 16008KT 10SM SKC 24/17 A3002
Conditions at: KGYI (SHERMAN/DENISON , TX, US) observed 1750 UTC 25 September 2020
Temperature: 24.0°C (75°F)
Dewpoint: 17.0°C (63°F) [RH = 65%]
Pressure (altimeter): 30.02 inches Hg (1016.7 mb)
Winds: from the SSE (160 degrees) at 9 MPH (8 knots; 4.1 m/s)
Visibility: 10 or more miles (16+ km)
Ceiling: at least 12,000 feet AGL
Clouds: clear skies
Weather: no significant weather observed at this time